Time;durP1;ratioP1;P1;durP2;ratioP2;P2;SDS_P1;SDS_P2;PMS_P1;PMS_P2;Temp;Humidity;BMP_temperature;BMP_pressure;BME280_temperature;BME280_humidity;BME280_pressure;Samples;Min_cycle;Max_cycle;Signal;HPM_P1;HPM_P2
2023/10/22 00:02:23;;;;;;;;;3.00;1.67;;;;;;;;5019892;28;45289;-47
2023/10/22 00:04:49;;;;;;;;;4.00;0.67;;;;;;;;5013693;28;45587;-51
2023/10/22 00:07:14;;;;;;;;;1.33;1.00;;;;;;;;5015391;28;45349;-49
2023/10/22 00:09:40;;;;;;;;;1.33;0.33;;;;;;;;5021601;28;46604;-48
2023/10/22 00:12:05;;;;;;;;;2.00;1.00;;;;;;;;5025978;28;45345;-47
2023/10/22 00:14:30;;;;;;;;;1.67;0.00;;;;;;;;5020728;28;45284;-47
2023/10/22 00:16:55;;;;;;;;;0.67;0.00;;;;;;;;5026594;28;45358;-51
2023/10/22 00:19:21;;;;;;;;;1.67;0.00;;;;;;;;5032120;28;45452;-47
2023/10/22 00:21:46;;;;;;;;;1.67;1.67;;;;;;;;5018845;28;45452;-48
2023/10/22 00:24:11;;;;;;;;;1.33;1.33;;;;;;;;5003115;28;45770;-47
2023/10/22 00:26:36;;;;;;;;;2.33;1.00;;;;;;;;5018657;28;45782;-47
2023/10/22 00:29:02;;;;;;;;;2.00;0.67;;;;;;;;5024240;28;45606;-47
2023/10/22 00:31:27;;;;;;;;;3.67;1.00;;;;;;;;5029124;28;45376;-47
2023/10/22 00:33:52;;;;;;;;;0.67;0.67;;;;;;;;5014970;28;45545;-46
2023/10/22 00:36:18;;;;;;;;;2.33;1.00;;;;;;;;5031641;28;45542;-47
2023/10/22 00:38:43;;;;;;;;;1.00;0.00;;;;;;;;5023210;28;45443;-46
2023/10/22 00:41:08;;;;;;;;;3.33;0.67;;;;;;;;5020399;28;45403;-49
2023/10/22 00:43:33;;;;;;;;;1.00;1.00;;;;;;;;5021240;28;45352;-48
2023/10/22 00:45:58;;;;;;;;;2.00;0.33;;;;;;;;5020570;28;45559;-46
2023/10/22 00:48:24;;;;;;;;;1.00;1.00;;;;;;;;5019552;28;45381;-48
2023/10/22 00:50:50;;;;;;;;;2.67;1.33;;;;;;;;5017458;28;45595;-48
2023/10/22 00:53:16;;;;;;;;;2.00;0.67;;;;;;;;5016141;28;45193;-47
2023/10/22 00:55:43;;;;;;;;;2.33;2.33;;;;;;;;5019694;28;45728;-47
2023/10/22 00:58:08;;;;;;;;;0.33;0.33;;;;;;;;5025064;28;46203;-48
2023/10/22 01:00:34;;;;;;;;;3.00;1.67;;;;;;;;5023458;28;45478;-47
2023/10/22 01:03:00;;;;;;;;;1.67;0.00;;;;;;;;5024702;28;45408;-48
2023/10/22 01:05:26;;;;;;;;;4.33;0.67;;;;;;;;5023181;28;45531;-48
2023/10/22 01:07:51;;;;;;;;;0.67;0.67;;;;;;;;5020193;28;45445;-48
2023/10/22 01:10:16;;;;;;;;;3.33;1.00;;;;;;;;5021414;28;45312;-48
2023/10/22 01:12:42;;;;;;;;;2.00;0.33;;;;;;;;5020946;28;45337;-49
2023/10/22 01:15:07;;;;;;;;;0.33;0.33;;;;;;;;5002951;28;45634;-47
2023/10/22 01:17:32;;;;;;;;;2.00;0.33;;;;;;;;5021426;28;45485;-48
2023/10/22 01:19:58;;;;;;;;;3.67;0.67;;;;;;;;5021046;28;45199;-47
2023/10/22 01:22:23;;;;;;;;;0.67;0.67;;;;;;;;5021761;28;45454;-48
2023/10/22 01:24:48;;;;;;;;;2.00;0.00;;;;;;;;5021503;28;45561;-48
2023/10/22 01:27:14;;;;;;;;;2.00;0.67;;;;;;;;5021176;28;46485;-48
2023/10/22 01:29:39;;;;;;;;;1.33;1.00;;;;;;;;5021273;28;45352;-47
2023/10/22 01:32:04;;;;;;;;;2.00;1.00;;;;;;;;5020979;28;45365;-50
2023/10/22 01:34:30;;;;;;;;;0.67;0.33;;;;;;;;5021878;28;45396;-47
2023/10/22 01:36:55;;;;;;;;;1.33;0.00;;;;;;;;5021547;28;45461;-48
2023/10/22 01:39:20;;;;;;;;;1.67;1.00;;;;;;;;5020651;28;45333;-48
2023/10/22 01:41:45;;;;;;;;;1.00;1.00;;;;;;;;5021496;28;45394;-48
2023/10/22 01:44:11;;;;;;;;;3.33;0.67;;;;;;;;5020978;28;45622;-46
2023/10/22 01:46:36;;;;;;;;;3.00;1.00;;;;;;;;5021183;28;45600;-47
2023/10/22 01:49:01;;;;;;;;;1.33;0.67;;;;;;;;5001474;28;45480;-46
2023/10/22 01:51:26;;;;;;;;;0.67;0.00;;;;;;;;5003022;28;45464;-45
2023/10/22 01:53:52;;;;;;;;;0.67;0.33;;;;;;;;5019075;28;45341;-46
2023/10/22 01:56:17;;;;;;;;;2.67;0.33;;;;;;;;5020185;28;45489;-47
2023/10/22 01:58:43;;;;;;;;;0.00;0.00;;;;;;;;5016623;28;45494;-46
2023/10/22 02:01:08;;;;;;;;;2.33;0.67;;;;;;;;5000100;28;45420;-46
2023/10/22 02:03:34;;;;;;;;;2.67;0.67;;;;;;;;5001340;28;46685;-47
2023/10/22 02:05:59;;;;;;;;;0.67;0.67;;;;;;;;5003743;28;45443;-50
2023/10/22 02:08:24;;;;;;;;;0.00;0.00;;;;;;;;5000404;28;45409;-50
2023/10/22 02:10:49;;;;;;;;;1.33;0.67;;;;;;;;5000965;28;45301;-47
2023/10/22 02:13:14;;;;;;;;;1.67;0.00;;;;;;;;4998200;28;46675;-47
2023/10/22 02:15:40;;;;;;;;;1.67;1.67;;;;;;;;5000577;28;46194;-48
2023/10/22 02:18:05;;;;;;;;;2.00;1.00;;;;;;;;5000341;28;45715;-46
2023/10/22 02:20:30;;;;;;;;;0.67;0.67;;;;;;;;5000943;28;45471;-47
2023/10/22 02:22:57;;;;;;;;;2.00;1.00;;;;;;;;5000753;28;45496;-49
2023/10/22 02:25:22;;;;;;;;;3.67;1.67;;;;;;;;5006691;28;47128;-46
2023/10/22 02:27:47;;;;;;;;;0.33;0.33;;;;;;;;5000209;28;45528;-47
2023/10/22 02:30:13;;;;;;;;;1.33;1.00;;;;;;;;4982781;28;45434;-50
2023/10/22 02:32:38;;;;;;;;;0.33;0.33;;;;;;;;4982704;28;45465;-47
2023/10/22 02:35:03;;;;;;;;;3.00;0.67;;;;;;;;5000250;28;45533;-52
2023/10/22 02:37:29;;;;;;;;;3.33;1.00;;;;;;;;5000503;28;45252;-49
2023/10/22 02:39:54;;;;;;;;;2.67;0.67;;;;;;;;5000165;28;45365;-48
2023/10/22 02:42:19;;;;;;;;;2.67;1.67;;;;;;;;4982049;28;45557;-50
2023/10/22 02:44:44;;;;;;;;;0.67;0.67;;;;;;;;4982449;28;47651;-49
2023/10/22 02:47:09;;;;;;;;;3.67;0.00;;;;;;;;4999651;28;45571;-47
2023/10/22 02:49:35;;;;;;;;;2.33;0.00;;;;;;;;4982883;28;45243;-48
2023/10/22 02:52:01;;;;;;;;;2.00;0.00;;;;;;;;4999806;28;45267;-48
2023/10/22 02:54:27;;;;;;;;;0.67;0.67;;;;;;;;4975627;28;47040;-47
2023/10/22 02:56:52;;;;;;;;;1.67;0.67;;;;;;;;4999586;28;45416;-48
2023/10/22 02:59:17;;;;;;;;;2.67;1.00;;;;;;;;5000492;28;45467;-47
2023/10/22 03:01:42;;;;;;;;;1.00;0.33;;;;;;;;5001999;28;45483;-47
2023/10/22 03:04:07;;;;;;;;;0.00;0.00;;;;;;;;5003742;28;45346;-48
2023/10/22 03:06:32;;;;;;;;;0.00;0.00;;;;;;;;5000606;28;45298;-46
2023/10/22 03:08:58;;;;;;;;;0.67;0.67;;;;;;;;5000036;28;45365;-51
2023/10/22 03:11:23;;;;;;;;;2.67;0.00;;;;;;;;4999908;28;45449;-49
2023/10/22 03:13:50;;;;;;;;;3.67;1.33;;;;;;;;5000396;28;45341;-51
2023/10/22 03:16:15;;;;;;;;;0.67;0.67;;;;;;;;4999845;28;45261;-48
2023/10/22 03:18:41;;;;;;;;;1.00;1.00;;;;;;;;5001356;28;45404;-47
2023/10/22 03:21:14;;;;;;;;;2.67;1.00;;;;;;;;5000711;28;45366;-48
2023/10/22 03:23:42;;;;;;;;;0.33;0.33;;;;;;;;5005316;28;45510;-48
2023/10/22 03:26:18;;;;;;;;;0.00;0.00;;;;;;;;5005398;28;45545;-49
2023/10/22 03:28:44;;;;;;;;;5.00;0.00;;;;;;;;5002107;28;45274;-49
2023/10/22 03:31:09;;;;;;;;;1.67;0.33;;;;;;;;5000841;28;45136;-46
2023/10/22 03:33:42;;;;;;;;;1.67;0.67;;;;;;;;5131786;27;1260306;-49
2023/10/22 03:36:09;;;;;;;;;2.33;1.00;;;;;;;;5157517;27;45251;-46
2023/10/22 03:38:35;;;;;;;;;3.67;0.67;;;;;;;;5158736;27;45635;-46
2023/10/22 03:41:02;;;;;;;;;0.67;0.67;;;;;;;;5155981;27;45451;-46
2023/10/22 03:43:28;;;;;;;;;3.33;1.00;;;;;;;;5130231;27;47946;-46
2023/10/22 03:45:53;;;;;;;;;3.33;0.00;;;;;;;;5157762;27;45324;-46
2023/10/22 03:48:18;;;;;;;;;3.00;1.00;;;;;;;;5158207;27;45282;-48
2023/10/22 03:50:44;;;;;;;;;0.67;0.67;;;;;;;;5158360;27;45293;-49
2023/10/22 03:53:09;;;;;;;;;1.33;0.67;;;;;;;;5157905;27;45438;-48
2023/10/22 03:55:34;;;;;;;;;2.67;0.67;;;;;;;;5158199;27;45240;-48
2023/10/22 03:57:59;;;;;;;;;0.33;0.33;;;;;;;;5158173;27;45404;-46
2023/10/22 04:00:24;;;;;;;;;5.00;1.00;;;;;;;;5158315;27;45614;-50
2023/10/22 04:02:49;;;;;;;;;1.67;0.67;;;;;;;;5148862;27;45725;-48
2023/10/22 04:05:15;;;;;;;;;0.33;0.33;;;;;;;;5155727;27;45521;-49
2023/10/22 04:07:40;;;;;;;;;0.00;0.00;;;;;;;;5154232;27;45385;-50
2023/10/22 04:10:09;;;;;;;;;1.00;0.00;;;;;;;;5157736;27;45416;-46
2023/10/22 04:12:35;;;;;;;;;2.33;0.33;;;;;;;;5157605;27;45494;-49
2023/10/22 04:15:00;;;;;;;;;0.67;0.33;;;;;;;;5157349;27;45431;-48
2023/10/22 04:17:25;;;;;;;;;0.00;0.00;;;;;;;;5157988;27;45247;-47
2023/10/22 04:19:50;;;;;;;;;0.00;0.00;;;;;;;;5154103;27;45250;-47
2023/10/22 04:22:15;;;;;;;;;1.00;0.00;;;;;;;;5157056;27;45577;-48
2023/10/22 04:24:40;;;;;;;;;1.00;0.33;;;;;;;;5155159;27;45267;-46
2023/10/22 04:27:06;;;;;;;;;0.67;0.67;;;;;;;;5157672;27;45289;-47
2023/10/22 04:29:31;;;;;;;;;1.67;0.67;;;;;;;;5157681;27;45338;-49
2023/10/22 04:31:56;;;;;;;;;0.00;0.00;;;;;;;;5157611;27;46280;-45
2023/10/22 04:34:21;;;;;;;;;2.00;0.00;;;;;;;;5157505;27;45345;-47
2023/10/22 04:36:46;;;;;;;;;0.33;0.33;;;;;;;;5157882;27;45332;-48
2023/10/22 04:39:12;;;;;;;;;0.33;0.33;;;;;;;;5157183;27;45394;-49
2023/10/22 04:41:37;;;;;;;;;0.00;0.00;;;;;;;;5157157;27;46229;-46
2023/10/22 04:44:03;;;;;;;;;0.67;0.33;;;;;;;;5149113;27;45269;-47
2023/10/22 04:46:28;;;;;;;;;1.00;0.67;;;;;;;;5143560;27;45848;-46
2023/10/22 04:48:54;;;;;;;;;1.33;0.67;;;;;;;;5143427;27;45405;-47
2023/10/22 04:51:21;;;;;;;;;3.00;1.00;;;;;;;;5124181;27;47020;-46
2023/10/22 04:53:46;;;;;;;;;2.67;1.33;;;;;;;;5135380;27;45372;-47
2023/10/22 04:56:11;;;;;;;;;4.00;1.33;;;;;;;;5139529;27;45477;-48
2023/10/22 04:58:37;;;;;;;;;0.00;0.00;;;;;;;;5143532;27;45531;-47
2023/10/22 05:01:02;;;;;;;;;1.33;0.00;;;;;;;;5123968;27;47766;-49
2023/10/22 05:03:27;;;;;;;;;0.67;0.67;;;;;;;;5141362;27;45296;-48
2023/10/22 05:05:52;;;;;;;;;1.00;0.00;;;;;;;;5141867;27;45474;-46
2023/10/22 05:08:18;;;;;;;;;2.33;0.33;;;;;;;;5142706;27;45515;-47
2023/10/22 05:10:44;;;;;;;;;3.33;0.00;;;;;;;;5139154;27;46092;-47
2023/10/22 05:13:09;;;;;;;;;2.00;0.67;;;;;;;;5129455;27;45385;-48
2023/10/22 05:15:34;;;;;;;;;0.00;0.00;;;;;;;;5143128;27;45424;-50
2023/10/22 05:18:02;;;;;;;;;1.33;0.00;;;;;;;;5142428;27;45226;-46
2023/10/22 05:20:28;;;;;;;;;3.00;0.67;;;;;;;;5133301;27;45405;-47
2023/10/22 05:22:53;;;;;;;;;1.00;0.00;;;;;;;;5139657;27;45378;-50
2023/10/22 05:25:20;;;;;;;;;1.67;1.67;;;;;;;;5137919;27;45942;-49
2023/10/22 05:27:45;;;;;;;;;0.67;0.67;;;;;;;;5135700;27;45510;-49
2023/10/22 05:30:10;;;;;;;;;0.67;0.67;;;;;;;;5137540;27;46285;-50
2023/10/22 05:32:36;;;;;;;;;2.00;0.00;;;;;;;;5142651;27;45343;-47
2023/10/22 05:35:03;;;;;;;;;1.67;0.33;;;;;;;;5101905;27;45373;-49
2023/10/22 05:37:28;;;;;;;;;4.00;1.00;;;;;;;;5142910;27;45326;-48
2023/10/22 05:39:55;;;;;;;;;0.33;0.33;;;;;;;;5140536;27;45575;-46
2023/10/22 05:42:20;;;;;;;;;1.50;0.50;;;;;;;;5135799;27;45247;-48
2023/10/22 05:44:46;;;;;;;;;2.00;0.00;;;;;;;;5142460;27;45677;-46
2023/10/22 05:47:11;;;;;;;;;1.00;1.00;;;;;;;;5123440;27;45497;-47
2023/10/22 05:49:36;;;;;;;;;0.00;0.00;;;;;;;;5142267;27;45498;-47
2023/10/22 05:52:03;;;;;;;;;1.00;1.00;;;;;;;;5123569;27;45307;-46
2023/10/22 05:54:28;;;;;;;;;0.67;0.67;;;;;;;;5142463;27;45344;-47
2023/10/22 05:56:53;;;;;;;;;1.00;1.00;;;;;;;;5141560;27;45354;-47
2023/10/22 05:59:19;;;;;;;;;1.00;1.00;;;;;;;;5142017;27;46371;-49
2023/10/22 06:01:44;;;;;;;;;1.33;1.33;;;;;;;;5137880;27;45304;-50
2023/10/22 06:04:09;;;;;;;;;1.67;1.33;;;;;;;;5136125;27;45550;-47
2023/10/22 06:06:34;;;;;;;;;0.67;0.67;;;;;;;;5136406;27;45302;-47
2023/10/22 06:08:59;;;;;;;;;1.67;0.33;;;;;;;;5141765;27;45314;-48
2023/10/22 06:11:25;;;;;;;;;0.33;0.33;;;;;;;;5142022;27;45283;-47
2023/10/22 06:13:50;;;;;;;;;0.67;0.67;;;;;;;;5142222;27;45372;-49
2023/10/22 06:16:15;;;;;;;;;0.00;0.00;;;;;;;;5123044;27;45305;-48
2023/10/22 06:18:40;;;;;;;;;0.67;0.33;;;;;;;;5141835;27;46131;-47
2023/10/22 06:21:09;;;;;;;;;1.67;1.67;;;;;;;;5141360;27;45451;-47
2023/10/22 06:23:34;;;;;;;;;5.00;1.00;;;;;;;;5131688;27;45481;-49
2023/10/22 06:25:59;;;;;;;;;1.67;0.00;;;;;;;;5139412;27;45443;-48
2023/10/22 06:28:25;;;;;;;;;0.00;0.00;;;;;;;;5141832;27;46179;-47
2023/10/22 06:30:50;;;;;;;;;0.67;0.67;;;;;;;;5136741;27;45325;-49
2023/10/22 06:33:15;;;;;;;;;0.67;0.67;;;;;;;;5139324;27;45401;-49
2023/10/22 06:35:41;;;;;;;;;0.00;0.00;;;;;;;;5137873;27;45385;-48
2023/10/22 06:38:06;;;;;;;;;1.75;1.50;;;;;;;;5141472;27;45388;-47
2023/10/22 06:40:33;;;;;;;;;2.00;0.00;;;;;;;;5139480;27;45264;-47
2023/10/22 06:42:58;;;;;;;;;1.00;1.00;;;;;;;;5141147;27;45348;-50
2023/10/22 06:45:24;;;;;;;;;3.00;1.00;;;;;;;;5141237;27;45186;-47
2023/10/22 06:47:50;;;;;;;;;3.67;0.67;;;;;;;;5141657;27;45357;-47
2023/10/22 06:50:16;;;;;;;;;1.33;0.33;;;;;;;;5139168;27;45410;-47
2023/10/22 06:52:42;;;;;;;;;0.33;0.33;;;;;;;;5140150;27;45396;-47
2023/10/22 06:55:08;;;;;;;;;0.00;0.00;;;;;;;;5139646;27;45419;-48
2023/10/22 06:57:33;;;;;;;;;0.33;0.33;;;;;;;;5132183;27;46396;-47
2023/10/22 06:59:58;;;;;;;;;1.33;0.00;;;;;;;;5127431;27;45341;-46
2023/10/22 07:02:24;;;;;;;;;0.00;0.00;;;;;;;;5123123;27;45530;-46
2023/10/22 07:04:56;;;;;;;;;2.00;1.00;;;;;;;;5132401;27;45519;-47
2023/10/22 07:07:22;;;;;;;;;1.33;1.00;;;;;;;;5136856;27;45511;-47
2023/10/22 07:09:48;;;;;;;;;3.00;0.00;;;;;;;;5136855;27;45522;-46
2023/10/22 07:12:13;;;;;;;;;1.33;0.00;;;;;;;;5138716;27;45494;-47
2023/10/22 07:14:38;;;;;;;;;2.33;1.00;;;;;;;;5135627;27;45710;-47
2023/10/22 07:17:04;;;;;;;;;0.33;0.33;;;;;;;;5132240;27;45511;-47
2023/10/22 07:19:29;;;;;;;;;1.33;1.33;;;;;;;;5126382;27;45403;-46
2023/10/22 07:21:54;;;;;;;;;0.33;0.33;;;;;;;;5112671;27;45336;-46
2023/10/22 07:24:20;;;;;;;;;1.33;0.00;;;;;;;;5123489;27;45318;-46
2023/10/22 07:26:45;;;;;;;;;0.00;0.00;;;;;;;;5136900;27;46222;-46
2023/10/22 07:29:12;;;;;;;;;0.00;0.00;;;;;;;;5138716;27;45365;-46
2023/10/22 07:31:37;;;;;;;;;2.33;0.00;;;;;;;;5138822;27;45399;-47
2023/10/22 07:34:02;;;;;;;;;0.00;0.00;;;;;;;;5129392;27;45541;-46
2023/10/22 07:36:27;;;;;;;;;2.00;0.00;;;;;;;;5139195;27;45676;-47
2023/10/22 07:38:53;;;;;;;;;0.67;0.67;;;;;;;;5139339;27;45347;-46
2023/10/22 07:41:19;;;;;;;;;1.00;0.33;;;;;;;;5139007;27;46597;-47
2023/10/22 07:43:45;;;;;;;;;0.67;0.67;;;;;;;;5139707;27;45349;-47
2023/10/22 07:46:10;;;;;;;;;0.00;0.00;;;;;;;;5136806;27;45601;-47
2023/10/22 07:48:36;;;;;;;;;0.67;0.67;;;;;;;;5132030;27;45460;-45
2023/10/22 07:51:11;;;;;;;;;0.33;0.33;;;;;;;;5131589;27;45332;-50
2023/10/22 07:53:36;;;;;;;;;2.00;0.67;;;;;;;;5122000;27;45390;-47
2023/10/22 07:56:02;;;;;;;;;1.33;0.67;;;;;;;;5132770;27;46573;-47
2023/10/22 07:58:27;;;;;;;;;2.00;0.00;;;;;;;;5120883;27;45401;-46
2023/10/22 08:00:52;;;;;;;;;0.00;0.00;;;;;;;;5120384;27;45502;-47
2023/10/22 08:03:17;;;;;;;;;2.00;0.00;;;;;;;;5109393;27;45586;-47
2023/10/22 08:05:42;;;;;;;;;1.00;0.00;;;;;;;;5128833;27;45429;-47
2023/10/22 08:08:07;;;;;;;;;0.33;0.33;;;;;;;;5126913;27;45382;-47
2023/10/22 08:10:33;;;;;;;;;1.00;0.00;;;;;;;;5131300;27;45746;-46
2023/10/22 08:12:58;;;;;;;;;1.00;0.67;;;;;;;;5139991;27;45358;-46
2023/10/22 08:15:23;;;;;;;;;1.67;0.67;;;;;;;;5126340;27;46599;-46
2023/10/22 08:17:48;;;;;;;;;0.33;0.00;;;;;;;;5127920;27;45679;-47
2023/10/22 08:20:13;;;;;;;;;3.33;0.67;;;;;;;;5131253;27;45587;-46
2023/10/22 08:22:39;;;;;;;;;0.67;0.67;;;;;;;;5119894;27;45401;-47
2023/10/22 08:25:04;;;;;;;;;3.67;0.67;;;;;;;;5133131;27;46283;-47
2023/10/22 08:27:29;;;;;;;;;0.00;0.00;;;;;;;;5135898;27;45324;-47
2023/10/22 08:29:54;;;;;;;;;1.67;0.67;;;;;;;;5142447;27;45586;-47
2023/10/22 08:32:20;;;;;;;;;0.67;0.67;;;;;;;;5136681;27;45384;-47
2023/10/22 08:34:45;;;;;;;;;3.33;0.33;;;;;;;;5136684;27;46303;-49
2023/10/22 08:37:11;;;;;;;;;1.00;0.00;;;;;;;;5117116;27;45444;-47
2023/10/22 08:39:36;;;;;;;;;0.00;0.00;;;;;;;;5141315;27;45402;-50
2023/10/22 08:42:05;;;;;;;;;1.00;1.00;;;;;;;;5136469;27;45384;-49
2023/10/22 08:44:32;;;;;;;;;2.67;0.67;;;;;;;;5130622;27;46139;-48
2023/10/22 08:46:58;;;;;;;;;0.00;0.00;;;;;;;;5120751;27;45932;-50
2023/10/22 08:49:24;;;;;;;;;2.67;0.67;;;;;;;;5111409;27;45473;-46
2023/10/22 08:51:49;;;;;;;;;1.67;0.00;;;;;;;;5118041;27;45519;-47
2023/10/22 08:54:16;;;;;;;;;3.67;1.00;;;;;;;;5124177;27;45642;-47
2023/10/22 08:56:41;;;;;;;;;0.00;0.00;;;;;;;;5126072;27;45563;-49
2023/10/22 08:59:08;;;;;;;;;0.33;0.33;;;;;;;;5114431;27;45474;-48
2023/10/22 09:01:33;;;;;;;;;2.00;1.00;;;;;;;;5127260;27;45246;-47
2023/10/22 09:03:59;;;;;;;;;3.33;1.67;;;;;;;;5125706;27;45464;-49
2023/10/22 09:06:24;;;;;;;;;0.67;0.67;;;;;;;;5138136;27;45243;-46
2023/10/22 09:08:49;;;;;;;;;0.00;0.00;;;;;;;;5126568;27;45588;-46
2023/10/22 09:11:15;;;;;;;;;2.33;1.00;;;;;;;;5139778;27;45659;-46
2023/10/22 09:13:41;;;;;;;;;1.00;1.00;;;;;;;;5125534;27;45657;-46
2023/10/22 09:16:07;;;;;;;;;3.33;1.00;;;;;;;;5112279;27;45824;-47
2023/10/22 09:18:32;;;;;;;;;3.00;1.00;;;;;;;;5143411;27;45472;-46
2023/10/22 09:21:06;;;;;;;;;0.33;0.00;;;;;;;;5136032;27;45515;-46
2023/10/22 09:23:32;;;;;;;;;1.33;1.33;;;;;;;;5134201;27;45586;-47
2023/10/22 09:25:57;;;;;;;;;0.00;0.00;;;;;;;;5123179;27;45594;-46
2023/10/22 09:28:26;;;;;;;;;2.00;1.00;;;;;;;;5140414;27;45484;-46
2023/10/22 09:30:58;;;;;;;;;0.00;0.00;;;;;;;;5141336;27;45327;-48
2023/10/22 09:33:35;;;;;;;;;1.00;1.00;;;;;;;;5131874;27;45495;-46
2023/10/22 09:36:01;;;;;;;;;0.00;0.00;;;;;;;;5136556;27;45259;-47
2023/10/22 09:38:39;;;;;;;;;0.00;0.00;;;;;;;;5119405;27;45397;-46
2023/10/22 09:41:04;;;;;;;;;0.00;0.00;;;;;;;;5129395;27;45378;-46
2023/10/22 09:43:30;;;;;;;;;0.00;0.00;;;;;;;;5138961;27;46490;-49
2023/10/22 09:45:55;;;;;;;;;0.00;0.00;;;;;;;;5113734;27;45172;-50
2023/10/22 09:48:20;;;;;;;;;0.00;0.00;;;;;;;;5117650;27;45183;-47
2023/10/22 09:50:46;;;;;;;;;2.00;1.00;;;;;;;;5134469;27;45460;-46
2023/10/22 09:53:15;;;;;;;;;0.00;0.00;;;;;;;;5137684;27;45616;-46
2023/10/22 09:55:41;;;;;;;;;0.00;0.00;;;;;;;;5129850;27;45840;-48
2023/10/22 09:58:08;;;;;;;;;2.00;0.00;;;;;;;;5127954;27;45451;-51
2023/10/22 10:00:34;;;;;;;;;2.50;0.00;;;;;;;;5136791;27;45266;-47
2023/10/22 10:03:01;;;;;;;;;1.00;1.00;;;;;;;;5133466;27;47147;-50
2023/10/22 10:05:26;;;;;;;;;2.00;1.00;;;;;;;;5137308;27;45391;-48
2023/10/22 10:07:52;;;;;;;;;2.00;1.00;;;;;;;;5137208;27;45319;-50
2023/10/22 10:10:17;;;;;;;;;1.00;1.00;;;;;;;;5113099;27;45555;-49
2023/10/22 10:12:42;;;;;;;;;0.00;0.00;;;;;;;;5110850;27;47021;-50
2023/10/22 10:15:28;;;;;;;;;1.00;1.00;;;;;;;;5099920;27;45389;-50
2023/10/22 10:17:53;;;;;;;;;1.00;0.75;;;;;;;;5113649;27;45397;-48
2023/10/22 10:20:25;;;;;;;;;2.00;1.00;;;;;;;;5107468;27;45712;-50
2023/10/22 10:23:01;;;;;;;;;3.00;1.00;;;;;;;;5136227;27;45326;-49
2023/10/22 10:25:30;;;;;;;;;1.00;1.00;;;;;;;;5131914;27;45821;-49
2023/10/22 10:27:56;;;;;;;;;1.00;1.00;;;;;;;;5123247;27;45316;-49
2023/10/22 10:30:21;;;;;;;;;2.00;1.00;;;;;;;;5133329;27;45329;-48
2023/10/22 10:32:49;;;;;;;;;0.00;0.00;;;;;;;;5135479;27;45362;-51
2023/10/22 10:35:15;;;;;;;;;1.00;1.00;;;;;;;;5121670;27;45286;-50
2023/10/22 10:38:00;;;;;;;;;2.00;1.00;;;;;;;;5136265;27;45180;-50
2023/10/22 10:40:39;;;;;;;;;1.50;1.00;;;;;;;;5122292;27;45766;-50
2023/10/22 10:43:05;;;;;;;;;0.00;0.00;;;;;;;;5131640;27;46552;-51
2023/10/22 10:45:30;;;;;;;;;2.00;0.00;;;;;;;;5116229;27;45421;-51
2023/10/22 10:47:55;;;;;;;;;0.00;0.00;;;;;;;;5123396;27;45322;-51
2023/10/22 10:50:20;;;;;;;;;2.00;0.25;;;;;;;;5137763;27;45620;-49
2023/10/22 10:52:48;;;;;;;;;0.00;0.00;;;;;;;;5130069;27;45215;-51
2023/10/22 10:55:20;;;;;;;;;1.00;1.00;;;;;;;;5110805;27;45353;-50
2023/10/22 10:57:48;;;;;;;;;1.25;1.25;;;;;;;;5110214;27;45319;-52
2023/10/22 11:00:20;;;;;;;;;1.00;1.00;;;;;;;;5117114;27;45487;-51
2023/10/22 11:02:49;;;;;;;;;0.00;0.00;;;;;;;;5133758;27;45425;-51
2023/10/22 11:05:15;;;;;;;;;1.50;0.00;;;;;;;;5135712;27;45275;-53
2023/10/22 11:07:42;;;;;;;;;0.50;0.00;;;;;;;;5116832;27;45427;-53
2023/10/22 11:10:08;;;;;;;;;1.00;1.00;;;;;;;;5129775;27;45822;-53
2023/10/22 11:12:33;;;;;;;;;1.00;0.00;;;;;;;;5121446;27;47646;-53
2023/10/22 11:14:59;;;;;;;;;2.00;1.00;;;;;;;;5140338;27;45318;-50
2023/10/22 11:17:26;;;;;;;;;0.00;0.00;;;;;;;;5140590;27;45423;-52
2023/10/22 11:19:51;;;;;;;;;15.00;13.33;;;;;;;;5131236;27;45169;-53
2023/10/22 11:22:17;;;;;;;;;0.25;0.25;;;;;;;;5124173;27;45710;-50
2023/10/22 11:24:42;;;;;;;;;1.00;1.00;;;;;;;;5123044;27;45601;-53
2023/10/22 11:27:08;;;;;;;;;3.00;1.00;;;;;;;;5129886;27;45458;-52
2023/10/22 11:29:43;;;;;;;;;0.00;0.00;;;;;;;;5126631;27;45432;-52
2023/10/22 11:32:12;;;;;;;;;2.00;0.25;;;;;;;;5130533;27;45417;-52
2023/10/22 11:34:45;;;;;;;;;0.25;0.25;;;;;;;;5124778;27;45478;-52
2023/10/22 11:37:11;;;;;;;;;0.25;0.25;;;;;;;;5129584;27;45507;-53
2023/10/22 11:39:36;;;;;;;;;0.75;0.00;;;;;;;;5127610;27;45806;-53
2023/10/22 11:42:07;;;;;;;;;1.75;1.50;;;;;;;;5136952;27;45884;-53
2023/10/22 11:44:35;;;;;;;;;1.00;1.00;;;;;;;;5140443;27;45225;-56
2023/10/22 11:47:21;;;;;;;;;1.00;1.00;;;;;;;;5127176;27;45543;-52
2023/10/22 11:49:47;;;;;;;;;1.00;1.00;;;;;;;;5136694;27;45397;-50
2023/10/22 11:52:31;;;;;;;;;0.25;0.25;;;;;;;;5133947;27;45488;-53
2023/10/22 11:54:56;;;;;;;;;0.75;0.00;;;;;;;;5141634;27;45467;-52
2023/10/22 11:57:21;;;;;;;;;0.25;0.25;;;;;;;;5143752;27;45351;-52
2023/10/22 11:59:47;;;;;;;;;0.75;0.75;;;;;;;;5117688;27;45518;-51
2023/10/22 12:02:12;;;;;;;;;0.00;0.00;;;;;;;;5141059;27;46153;-52
2023/10/22 12:04:37;;;;;;;;;3.00;0.00;;;;;;;;5131690;27;45486;-48
2023/10/22 12:07:02;;;;;;;;;2.00;0.00;;;;;;;;5129630;27;45519;-47
2023/10/22 12:09:28;;;;;;;;;0.00;0.00;;;;;;;;5129796;27;45576;-46
2023/10/22 12:11:53;;;;;;;;;1.75;1.00;;;;;;;;5128906;27;46134;-50
2023/10/22 12:14:18;;;;;;;;;1.25;1.00;;;;;;;;5115713;27;45460;-47
2023/10/22 12:16:43;;;;;;;;;2.00;0.00;;;;;;;;5126546;27;45306;-48
2023/10/22 12:19:09;;;;;;;;;0.00;0.00;;;;;;;;5134921;27;45360;-50
2023/10/22 12:21:34;;;;;;;;;0.25;0.25;;;;;;;;5137522;27;46521;-47
2023/10/22 12:23:59;;;;;;;;;1.00;1.00;;;;;;;;5106233;27;45348;-49
2023/10/22 12:26:24;;;;;;;;;2.25;0.00;;;;;;;;5118892;27;45753;-47
2023/10/22 12:28:50;;;;;;;;;0.75;0.75;;;;;;;;5133034;27;45396;-48
2023/10/22 12:31:15;;;;;;;;;1.00;0.00;;;;;;;;5128272;27;45401;-47
2023/10/22 12:33:40;;;;;;;;;0.25;0.25;;;;;;;;5132940;27;45547;-46
2023/10/22 12:36:05;;;;;;;;;1.25;0.00;;;;;;;;5131527;27;45577;-48
2023/10/22 12:38:32;;;;;;;;;0.00;0.00;;;;;;;;5136114;27;45467;-49
2023/10/22 12:40:57;;;;;;;;;2.00;1.00;;;;;;;;5125931;27;45488;-47
2023/10/22 12:43:22;;;;;;;;;0.25;0.25;;;;;;;;5143656;27;45218;-47
2023/10/22 12:45:47;;;;;;;;;1.00;0.50;;;;;;;;5129437;27;45249;-48
2023/10/22 12:48:12;;;;;;;;;1.75;1.00;;;;;;;;5132184;27;45202;-47
2023/10/22 12:50:38;;;;;;;;;1.50;0.50;;;;;;;;5142234;27;45386;-47
2023/10/22 12:53:04;;;;;;;;;1.00;0.00;;;;;;;;5131693;27;45216;-47
2023/10/22 12:55:29;;;;;;;;;1.00;1.00;;;;;;;;5129805;27;45643;-47
2023/10/22 12:57:54;;;;;;;;;0.75;0.75;;;;;;;;5132583;27;45534;-47
2023/10/22 13:00:20;;;;;;;;;1.75;0.25;;;;;;;;5130258;27;45658;-48
2023/10/22 13:02:45;;;;;;;;;0.25;0.00;;;;;;;;5134336;27;45361;-47
2023/10/22 13:05:11;;;;;;;;;2.00;0.25;;;;;;;;5136406;27;45373;-49
2023/10/22 13:07:36;;;;;;;;;0.00;0.00;;;;;;;;5136905;27;45587;-49
2023/10/22 13:10:03;;;;;;;;;0.50;0.00;;;;;;;;5138375;27;45633;-47
2023/10/22 13:12:28;;;;;;;;;1.75;1.00;;;;;;;;5134024;27;45463;-50
2023/10/22 13:14:53;;;;;;;;;1.50;0.75;;;;;;;;5143250;27;45566;-50
2023/10/22 13:17:19;;;;;;;;;1.50;0.00;;;;;;;;5133573;27;45283;-47
2023/10/22 13:19:44;;;;;;;;;1.25;0.25;;;;;;;;5115438;27;47753;-49
2023/10/22 13:22:09;;;;;;;;;2.00;0.75;;;;;;;;5119027;27;45354;-47
2023/10/22 13:24:34;;;;;;;;;0.75;0.75;;;;;;;;5129950;27;45559;-47
2023/10/22 13:26:59;;;;;;;;;3.00;1.00;;;;;;;;5123786;27;45530;-47
2023/10/22 13:29:25;;;;;;;;;1.00;0.00;;;;;;;;5142887;27;45370;-48
2023/10/22 13:31:50;;;;;;;;;0.00;0.00;;;;;;;;5138493;27;45442;-46
2023/10/22 13:34:15;;;;;;;;;1.25;1.00;;;;;;;;5138330;27;45333;-46
2023/10/22 13:36:40;;;;;;;;;0.25;0.25;;;;;;;;5139262;27;45311;-46
2023/10/22 13:39:05;;;;;;;;;3.00;0.00;;;;;;;;5130637;27;46269;-46
2023/10/22 13:41:31;;;;;;;;;0.00;0.00;;;;;;;;5139916;27;45435;-47
2023/10/22 13:43:56;;;;;;;;;0.00;0.00;;;;;;;;5138206;27;45328;-47
2023/10/22 13:46:21;;;;;;;;;0.75;0.75;;;;;;;;5139113;27;45446;-49
2023/10/22 13:48:47;;;;;;;;;1.00;0.00;;;;;;;;5119298;27;47023;-47
2023/10/22 13:51:12;;;;;;;;;2.50;1.00;;;;;;;;5139098;27;45231;-46
2023/10/22 13:53:37;;;;;;;;;1.00;0.00;;;;;;;;5137382;27;45219;-48
2023/10/22 13:56:02;;;;;;;;;5.50;2.00;;;;;;;;5139560;27;45745;-46
2023/10/22 13:58:28;;;;;;;;;2.00;2.00;;;;;;;;5129379;27;46519;-47
2023/10/22 14:00:53;;;;;;;;;1.00;1.00;;;;;;;;5134814;27;45242;-47
2023/10/22 14:03:18;;;;;;;;;1.00;0.75;;;;;;;;5134493;27;45240;-47
2023/10/22 14:05:50;;;;;;;;;0.75;0.00;;;;;;;;5137659;27;45299;-49
2023/10/22 14:08:15;;;;;;;;;1.00;1.00;;;;;;;;5117031;27;47426;-49
2023/10/22 14:10:41;;;;;;;;;0.50;0.00;;;;;;;;5142178;27;45440;-50
2023/10/22 14:13:07;;;;;;;;;2.00;0.00;;;;;;;;5141856;27;45348;-48
2023/10/22 14:15:32;;;;;;;;;0.50;0.00;;;;;;;;5142012;27;45176;-46
2023/10/22 14:17:58;;;;;;;;;1.00;0.00;;;;;;;;5140697;27;45475;-46
2023/10/22 14:20:24;;;;;;;;;3.75;0.50;;;;;;;;5142120;27;45368;-46
2023/10/22 14:22:49;;;;;;;;;5.00;3.00;;;;;;;;5142038;27;45372;-46
2023/10/22 14:25:15;;;;;;;;;0.00;0.00;;;;;;;;5141330;27;45597;-48
2023/10/22 14:27:40;;;;;;;;;0.25;0.25;;;;;;;;5141829;27;46293;-47
2023/10/22 14:30:05;;;;;;;;;0.00;0.00;;;;;;;;5120054;27;45258;-47
2023/10/22 14:32:33;;;;;;;;;1.00;1.00;;;;;;;;5135701;27;45314;-46
2023/10/22 14:34:59;;;;;;;;;0.25;0.25;;;;;;;;5132721;27;45870;-46
2023/10/22 14:37:24;;;;;;;;;3.75;0.00;;;;;;;;5142462;27;45534;-45